Time;durP1;ratioP1;P1;durP2;ratioP2;P2;SDS_P1;SDS_P2;PMS_P1;PMS_P2;Temp;Humidity;BMP_temperature;BMP_pressure;BME280_temperature;BME280_humidity;BME280_pressure;Samples;Min_cycle;Max_cycle;Signal;HPM_P1;HPM_P2
2023/04/11 00:01:43;;;;;;;8.97;5.13;;;;;;;;;;5053078;28;20084;-58
2023/04/11 00:04:10;;;;;;;7.00;4.68;;;;;;;;;;5052744;28;20309;-57
2023/04/11 00:06:37;;;;;;;7.47;4.78;;;;;;;;;;5052979;28;20106;-59
2023/04/11 00:09:04;;;;;;;7.18;4.53;;;;;;;;;;5052656;28;20053;-58
2023/04/11 00:11:32;;;;;;;6.75;4.65;;;;;;;;;;5052715;28;20045;-57
2023/04/11 00:14:00;;;;;;;8.35;4.72;;;;;;;;;;5051901;28;20053;-60
2023/04/11 00:16:27;;;;;;;7.75;5.13;;;;;;;;;;5052142;28;20198;-58
2023/04/11 00:18:55;;;;;;;8.90;5.32;;;;;;;;;;5052200;28;20056;-58
2023/04/11 00:21:22;;;;;;;8.43;5.28;;;;;;;;;;5052205;28;20115;-57
2023/04/11 00:23:49;;;;;;;7.30;4.55;;;;;;;;;;5052787;28;20094;-59
2023/04/11 00:26:16;;;;;;;6.97;4.55;;;;;;;;;;5052329;28;20049;-58
2023/04/11 00:28:42;;;;;;;9.75;5.15;;;;;;;;;;5052179;28;20049;-58
2023/04/11 00:31:11;;;;;;;6.93;4.55;;;;;;;;;;5052254;28;20336;-59
2023/04/11 00:33:38;;;;;;;7.47;4.55;;;;;;;;;;5052459;28;20065;-57
2023/04/11 00:36:05;;;;;;;6.55;4.18;;;;;;;;;;5052349;28;20102;-58
2023/04/11 00:38:32;;;;;;;6.78;4.88;;;;;;;;;;5052106;28;20102;-59
2023/04/11 00:40:59;;;;;;;7.50;4.55;;;;;;;;;;5052094;28;20158;-59
2023/04/11 00:43:26;;;;;;;6.88;4.38;;;;;;;;;;5051817;28;20095;-59
2023/04/11 00:45:53;;;;;;;6.85;4.00;;;;;;;;;;5051911;28;20053;-59
2023/04/11 00:48:23;;;;;;;6.32;4.22;;;;;;;;;;5052139;28;20057;-59
2023/04/11 00:50:50;;;;;;;7.20;4.45;;;;;;;;;;5052754;28;20055;-59
2023/04/11 00:53:17;;;;;;;6.45;4.00;;;;;;;;;;5051977;28;20441;-59
2023/04/11 00:55:44;;;;;;;6.68;4.72;;;;;;;;;;5051837;28;20053;-58
2023/04/11 00:58:11;;;;;;;7.28;5.03;;;;;;;;;;5051928;28;20579;-58
2023/04/11 01:00:38;;;;;;;7.03;4.68;;;;;;;;;;5051827;28;20045;-57
2023/04/11 01:03:05;;;;;;;8.75;4.80;;;;;;;;;;5051798;28;20055;-59
2023/04/11 01:05:34;;;;;;;7.35;4.57;;;;;;;;;;5051598;28;20049;-58
2023/04/11 01:08:02;;;;;;;10.15;5.15;;;;;;;;;;5051364;28;20116;-58
2023/04/11 01:10:31;;;;;;;6.70;4.40;;;;;;;;;;5051633;28;20053;-58
2023/04/11 01:13:00;;;;;;;6.60;4.20;;;;;;;;;;5051669;28;20049;-58
2023/04/11 01:15:27;;;;;;;8.07;4.70;;;;;;;;;;5051797;28;20049;-58
2023/04/11 01:17:56;;;;;;;7.40;4.25;;;;;;;;;;5051537;28;20056;-58
2023/04/11 01:20:25;;;;;;;6.32;4.03;;;;;;;;;;5051654;28;20061;-59
2023/04/11 01:22:54;;;;;;;7.05;3.60;;;;;;;;;;5051516;28;20107;-57
2023/04/11 01:25:23;;;;;;;5.68;3.63;;;;;;;;;;5054594;28;20286;-56
2023/04/11 01:27:51;;;;;;;6.53;3.33;;;;;;;;;;5058013;28;20106;-58
2023/04/11 01:30:17;;;;;;;5.80;3.50;;;;;;;;;;5058231;28;20057;-56
2023/04/11 01:32:44;;;;;;;6.40;3.88;;;;;;;;;;5057982;28;20045;-59
2023/04/11 01:35:12;;;;;;;5.63;3.70;;;;;;;;;;5058275;28;20520;-60
2023/04/11 01:37:39;;;;;;;7.20;4.22;;;;;;;;;;5058609;28;20060;-58
2023/04/11 01:40:07;;;;;;;8.18;4.80;;;;;;;;;;5058519;28;20437;-58
2023/04/11 01:42:36;;;;;;;8.13;4.93;;;;;;;;;;5057852;28;20063;-58
2023/04/11 01:45:05;;;;;;;8.07;5.25;;;;;;;;;;5057861;28;20048;-59
2023/04/11 01:47:32;;;;;;;7.68;4.93;;;;;;;;;;5057994;28;20088;-59
2023/04/11 01:49:59;;;;;;;7.43;4.75;;;;;;;;;;5057926;28;20075;-60
2023/04/11 01:52:26;;;;;;;7.20;4.53;;;;;;;;;;5057967;28;20053;-58
2023/04/11 01:54:53;;;;;;;6.95;4.30;;;;;;;;;;5057960;28;20059;-58
2023/04/11 01:57:19;;;;;;;7.85;4.90;;;;;;;;;;5057832;28;20048;-58
2023/04/11 01:59:48;;;;;;;7.30;4.40;;;;;;;;;;5057854;28;20094;-57
2023/04/11 02:02:15;;;;;;;7.97;4.97;;;;;;;;;;5058250;28;20084;-55
2023/04/11 02:04:41;;;;;;;5.72;4.30;;;;;;;;;;5057668;28;20052;-57
2023/04/11 02:07:08;;;;;;;8.70;4.50;;;;;;;;;;5057724;28;20107;-58
2023/04/11 02:09:36;;;;;;;7.00;4.05;;;;;;;;;;5057497;28;20048;-58
2023/04/11 02:12:03;;;;;;;7.45;4.00;;;;;;;;;;5057785;28;20049;-57
2023/04/11 02:14:40;;;;;;;7.40;4.45;;;;;;;;;;5057719;28;20048;-60
2023/04/11 02:17:08;;;;;;;5.93;3.83;;;;;;;;;;5057645;28;20056;-58
2023/04/11 02:19:35;;;;;;;6.40;3.88;;;;;;;;;;5057696;28;20139;-59
2023/04/11 02:22:02;;;;;;;5.68;3.55;;;;;;;;;;5057687;28;20053;-59
2023/04/11 02:24:29;;;;;;;8.50;3.65;;;;;;;;;;5057835;28;20049;-59
2023/04/11 02:26:56;;;;;;;6.63;3.40;;;;;;;;;;5057714;28;20464;-60
2023/04/11 02:29:23;;;;;;;7.35;3.25;;;;;;;;;;5057478;28;20125;-57
2023/04/11 02:31:50;;;;;;;5.70;3.47;;;;;;;;;;5057514;28;20057;-59
2023/04/11 02:34:18;;;;;;;6.75;3.85;;;;;;;;;;5057609;28;20049;-59
2023/04/11 02:36:45;;;;;;;5.72;3.17;;;;;;;;;;5055270;28;20084;-59
2023/04/11 02:39:12;;;;;;;7.22;3.50;;;;;;;;;;5054146;28;20092;-59
2023/04/11 02:41:39;;;;;;;6.03;3.53;;;;;;;;;;5054249;28;20529;-59
2023/04/11 02:44:06;;;;;;;5.85;3.33;;;;;;;;;;5054215;28;20045;-59
2023/04/11 02:46:33;;;;;;;5.20;3.10;;;;;;;;;;5053988;28;20049;-58
2023/04/11 02:48:59;;;;;;;5.03;2.83;;;;;;;;;;5054181;28;20048;-59
2023/04/11 02:51:28;;;;;;;5.15;2.72;;;;;;;;;;5054209;28;20049;-59
2023/04/11 02:53:55;;;;;;;6.60;3.10;;;;;;;;;;5054239;28;20097;-59
2023/04/11 02:56:22;;;;;;;4.80;3.58;;;;;;;;;;5053967;28;20426;-59
2023/04/11 02:58:48;;;;;;;7.75;3.30;;;;;;;;;;5053865;28;20053;-59
2023/04/11 03:01:17;;;;;;;6.35;3.15;;;;;;;;;;5053970;28;20045;-56
2023/04/11 03:03:44;;;;;;;5.18;2.63;;;;;;;;;;5054151;28;20386;-60
2023/04/11 03:06:11;;;;;;;6.68;3.13;;;;;;;;;;5053843;28;20049;-60
2023/04/11 03:08:39;;;;;;;5.90;2.95;;;;;;;;;;5053707;28;20053;-60
2023/04/11 03:11:06;;;;;;;5.88;2.88;;;;;;;;;;5053865;28;20102;-58
2023/04/11 03:13:32;;;;;;;5.32;3.15;;;;;;;;;;5053598;28;20087;-58
2023/04/11 03:15:59;;;;;;;5.68;2.92;;;;;;;;;;5053578;28;20568;-57
2023/04/11 03:18:26;;;;;;;5.18;2.72;;;;;;;;;;5053510;28;20049;-58
2023/04/11 03:20:54;;;;;;;4.80;2.78;;;;;;;;;;5053441;28;20053;-53
2023/04/11 03:23:21;;;;;;;4.28;2.72;;;;;;;;;;5054396;28;20088;-55
2023/04/11 03:25:49;;;;;;;5.43;3.05;;;;;;;;;;5053435;28;20472;-56
2023/04/11 03:28:16;;;;;;;4.53;2.95;;;;;;;;;;5053389;28;20452;-56
2023/04/11 03:30:43;;;;;;;4.72;2.60;;;;;;;;;;5053265;28;20049;-56
2023/04/11 03:33:10;;;;;;;5.35;1.80;;;;;;;;;;5053493;28;20119;-55
2023/04/11 03:35:37;;;;;;;4.90;2.28;;;;;;;;;;5053252;28;20134;-56
2023/04/11 03:38:04;;;;;;;4.45;2.13;;;;;;;;;;5053406;28;20049;-52
2023/04/11 03:40:31;;;;;;;3.88;2.00;;;;;;;;;;5052958;28;20053;-55
2023/04/11 03:43:00;;;;;;;5.75;2.00;;;;;;;;;;5053467;28;20490;-56
2023/04/11 03:45:27;;;;;;;5.40;2.27;;;;;;;;;;5052912;28;20057;-56
2023/04/11 03:47:54;;;;;;;3.80;1.67;;;;;;;;;;5052381;28;20049;-55
2023/04/11 03:50:21;;;;;;;4.47;2.42;;;;;;;;;;5052540;28;20053;-55
2023/04/11 03:52:48;;;;;;;5.03;2.00;;;;;;;;;;5053054;28;20123;-56
2023/04/11 03:55:15;;;;;;;3.35;2.03;;;;;;;;;;5052560;28;20450;-52
2023/04/11 03:57:42;;;;;;;3.60;1.80;;;;;;;;;;5052846;28;20102;-54
2023/04/11 04:00:11;;;;;;;5.00;2.85;;;;;;;;;;5052635;28;20049;-55
2023/04/11 04:02:38;;;;;;;3.42;1.70;;;;;;;;;;5053074;28;20179;-55
2023/04/11 04:05:05;;;;;;;4.43;2.40;;;;;;;;;;5052929;28;20107;-55
2023/04/11 04:07:32;;;;;;;5.45;2.70;;;;;;;;;;5052589;28;20053;-56
2023/04/11 04:09:59;;;;;;;6.00;3.13;;;;;;;;;;5052476;28;20045;-55
2023/04/11 04:12:26;;;;;;;5.22;2.88;;;;;;;;;;5052724;28;20415;-56
2023/04/11 04:14:53;;;;;;;4.93;3.10;;;;;;;;;;5052735;28;20106;-55
2023/04/11 04:17:21;;;;;;;6.10;2.70;;;;;;;;;;5052379;28;20049;-55
2023/04/11 04:19:48;;;;;;;4.68;2.25;;;;;;;;;;5052146;28;20049;-55
2023/04/11 04:22:16;;;;;;;6.55;2.67;;;;;;;;;;5052307;28;20045;-55
2023/04/11 04:24:46;;;;;;;5.20;2.30;;;;;;;;;;5052411;28;20505;-55
2023/04/11 04:27:13;;;;;;;4.13;2.20;;;;;;;;;;5052393;28;20057;-55
2023/04/11 04:29:46;;;;;;;3.30;1.60;;;;;;;;;;5052283;28;20131;-55
2023/04/11 04:32:13;;;;;;;4.40;1.63;;;;;;;;;;5052818;28;20089;-56
2023/04/11 04:34:45;;;;;;;4.32;1.58;;;;;;;;;;5052780;28;20053;-56
2023/04/11 04:37:20;;;;;;;4.50;2.00;;;;;;;;;;5052630;28;20048;-56
2023/04/11 04:39:53;;;;;;;5.35;1.92;;;;;;;;;;5052624;28;20064;-56
2023/04/11 04:42:21;;;;;;;4.75;1.60;;;;;;;;;;5052584;28;20147;-56
2023/04/11 04:44:48;;;;;;;4.35;1.63;;;;;;;;;;5052188;28;20049;-53
2023/04/11 04:47:15;;;;;;;4.45;1.60;;;;;;;;;;5051983;28;20055;-55
2023/04/11 04:49:44;;;;;;;5.40;1.88;;;;;;;;;;5052127;28;20057;-52
2023/04/11 04:52:12;;;;;;;3.67;1.60;;;;;;;;;;5052207;28;20052;-54
2023/04/11 04:54:39;;;;;;;4.68;1.83;;;;;;;;;;5052084;28;20056;-52
2023/04/11 04:57:06;;;;;;;4.10;1.70;;;;;;;;;;5051757;28;20084;-56
2023/04/11 04:59:33;;;;;;;4.55;1.85;;;;;;;;;;5051370;28;20048;-54
2023/04/11 05:02:00;;;;;;;4.75;1.92;;;;;;;;;;5051807;28;20060;-55
2023/04/11 05:04:28;;;;;;;5.70;2.30;;;;;;;;;;5052091;28;20094;-55
2023/04/11 05:06:56;;;;;;;4.15;2.00;;;;;;;;;;5052087;28;20041;-55
2023/04/11 05:09:23;;;;;;;4.25;1.70;;;;;;;;;;5052088;28;20057;-55
2023/04/11 05:11:50;;;;;;;4.57;1.90;;;;;;;;;;5051837;28;20457;-56
2023/04/11 05:14:17;;;;;;;4.55;2.15;;;;;;;;;;5052011;28;20140;-52
2023/04/11 05:16:44;;;;;;;3.42;1.90;;;;;;;;;;5051998;28;20139;-55
2023/04/11 05:19:10;;;;;;;5.90;1.98;;;;;;;;;;5051839;28;20045;-55
2023/04/11 05:21:38;;;;;;;4.65;2.03;;;;;;;;;;5051956;28;20095;-52
2023/04/11 05:24:06;;;;;;;4.65;2.20;;;;;;;;;;5051957;28;20406;-54
2023/04/11 05:26:33;;;;;;;5.28;2.60;;;;;;;;;;5051440;28;20060;-53
2023/04/11 05:29:00;;;;;;;4.03;2.15;;;;;;;;;;5051828;28;20130;-53
2023/04/11 05:31:27;;;;;;;8.15;2.60;;;;;;;;;;5051868;28;20076;-56
2023/04/11 05:33:54;;;;;;;4.80;2.50;;;;;;;;;;5051835;28;20414;-56
2023/04/11 05:36:21;;;;;;;4.28;2.47;;;;;;;;;;5051553;28;20057;-56
2023/04/11 05:38:48;;;;;;;4.78;2.42;;;;;;;;;;5051754;28;20127;-54
2023/04/11 05:41:16;;;;;;;4.13;2.63;;;;;;;;;;5051582;28;20056;-55
2023/04/11 05:43:43;;;;;;;4.30;2.70;;;;;;;;;;5051635;28;20464;-54
2023/04/11 05:46:11;;;;;;;6.88;2.50;;;;;;;;;;5051155;28;20052;-55
2023/04/11 05:48:38;;;;;;;6.15;2.83;;;;;;;;;;5051843;28;20529;-56
2023/04/11 05:51:05;;;;;;;4.03;1.92;;;;;;;;;;5051666;28;20095;-52
2023/04/11 05:53:32;;;;;;;5.18;2.70;;;;;;;;;;5051737;28;20181;-53
2023/04/11 05:56:00;;;;;;;3.97;2.05;;;;;;;;;;5051375;28;20107;-56
2023/04/11 05:58:29;;;;;;;6.50;3.10;;;;;;;;;;5051774;28;20472;-53
2023/04/11 06:00:56;;;;;;;5.57;2.10;;;;;;;;;;5051341;28;20152;-56
2023/04/11 06:03:23;;;;;;;2.95;1.90;;;;;;;;;;5052133;28;20064;-55
2023/04/11 06:05:50;;;;;;;3.92;2.00;;;;;;;;;;5051254;28;20520;-55
2023/04/11 06:08:17;;;;;;;4.75;2.22;;;;;;;;;;5051650;28;20053;-53
2023/04/11 06:10:44;;;;;;;4.30;2.17;;;;;;;;;;5051357;28;20420;-53
2023/04/11 06:13:11;;;;;;;3.75;2.20;;;;;;;;;;5054719;28;20144;-56
2023/04/11 06:15:39;;;;;;;4.18;2.08;;;;;;;;;;5055207;28;20110;-55
2023/04/11 06:18:06;;;;;;;6.15;2.20;;;;;;;;;;5055335;28;20053;-54
2023/04/11 06:20:33;;;;;;;4.90;2.20;;;;;;;;;;5054735;28;20110;-56
2023/04/11 06:23:00;;;;;;;4.72;2.20;;;;;;;;;;5054727;28;20045;-55
2023/04/11 06:25:27;;;;;;;4.03;2.15;;;;;;;;;;5054951;28;20060;-53
2023/04/11 06:27:54;;;;;;;5.30;2.38;;;;;;;;;;5054792;28;20053;-56
2023/04/11 06:30:21;;;;;;;6.22;2.55;;;;;;;;;;5054940;28;20044;-58
2023/04/11 06:32:49;;;;;;;7.35;2.45;;;;;;;;;;5054883;28;20102;-55
2023/04/11 06:35:15;;;;;;;3.15;2.00;;;;;;;;;;5054935;28;20132;-55
2023/04/11 06:37:44;;;;;;;5.10;2.10;;;;;;;;;;5054525;28;20049;-56
2023/04/11 06:40:12;;;;;;;4.65;2.20;;;;;;;;;;5054831;28;20057;-56
2023/04/11 06:42:39;;;;;;;4.03;2.40;;;;;;;;;;5054621;28;20045;-56
2023/04/11 06:45:06;;;;;;;4.55;2.55;;;;;;;;;;5054699;28;20053;-56
2023/04/11 06:47:33;;;;;;;4.15;2.40;;;;;;;;;;5054775;28;20056;-56
2023/04/11 06:50:01;;;;;;;4.65;2.58;;;;;;;;;;5051547;28;20345;-55
2023/04/11 06:52:29;;;;;;;4.80;2.75;;;;;;;;;;5053168;28;20072;-55
2023/04/11 06:54:56;;;;;;;4.00;2.45;;;;;;;;;;5052756;28;20067;-57
2023/04/11 06:57:23;;;;;;;4.32;2.33;;;;;;;;;;5052207;28;20556;-54
2023/04/11 06:59:49;;;;;;;5.22;2.60;;;;;;;;;;5052214;28;20182;-54
2023/04/11 07:02:16;;;;;;;4.60;2.60;;;;;;;;;;5052465;28;20049;-62
2023/04/11 07:04:43;;;;;;;5.93;2.60;;;;;;;;;;5053169;28;20099;-60
2023/04/11 07:07:11;;;;;;;6.25;2.22;;;;;;;;;;5052529;28;20053;-55
2023/04/11 07:09:38;;;;;;;4.85;2.17;;;;;;;;;;5052401;28;20053;-58
2023/04/11 07:12:05;;;;;;;3.50;1.80;;;;;;;;;;5052489;28;20053;-60
2023/04/11 07:14:32;;;;;;;3.95;2.03;;;;;;;;;;5051957;28;20057;-61
2023/04/11 07:17:00;;;;;;;4.38;2.28;;;;;;;;;;5051950;28;20512;-59
2023/04/11 07:19:27;;;;;;;3.40;1.90;;;;;;;;;;5051918;28;20053;-59
2023/04/11 07:21:54;;;;;;;4.18;1.67;;;;;;;;;;5051902;28;20059;-55
2023/04/11 07:24:22;;;;;;;4.95;2.35;;;;;;;;;;5051428;28;20053;-58
2023/04/11 07:26:50;;;;;;;3.55;1.70;;;;;;;;;;5051687;28;20080;-59
2023/04/11 07:29:17;;;;;;;3.70;1.67;;;;;;;;;;5051302;28;20053;-58
2023/04/11 07:31:44;;;;;;;2.90;1.30;;;;;;;;;;5051799;28;20067;-58
2023/04/11 07:34:11;;;;;;;3.30;1.58;;;;;;;;;;5051490;28;20485;-57
2023/04/11 07:36:38;;;;;;;3.58;1.40;;;;;;;;;;5051589;28;20056;-59
2023/04/11 07:39:07;;;;;;;2.83;1.25;;;;;;;;;;5051746;28;20045;-59
2023/04/11 07:41:36;;;;;;;3.30;1.50;;;;;;;;;;5051658;28;20064;-59
2023/04/11 07:44:03;;;;;;;4.43;1.70;;;;;;;;;;5051322;28;20053;-60
2023/04/11 07:46:30;;;;;;;3.45;1.20;;;;;;;;;;5051094;28;20414;-59
2023/04/11 07:48:57;;;;;;;1.83;1.08;;;;;;;;;;5051513;28;20265;-59
2023/04/11 07:51:25;;;;;;;3.33;1.25;;;;;;;;;;5051262;28;20431;-59
2023/04/11 07:53:52;;;;;;;3.58;1.30;;;;;;;;;;5051255;28;20580;-59
2023/04/11 07:56:19;;;;;;;2.15;1.08;;;;;;;;;;5051284;28;20139;-55
2023/04/11 07:58:47;;;;;;;3.83;1.10;;;;;;;;;;5051053;28;20114;-57
2023/04/11 08:01:22;;;;;;;2.42;0.90;;;;;;;;;;5051388;28;20138;-58
2023/04/11 08:03:49;;;;;;;3.80;1.55;;;;;;;;;;5051010;28;20064;-58
2023/04/11 08:06:15;;;;;;;3.42;1.30;;;;;;;;;;5051021;28;20474;-59
2023/04/11 08:08:42;;;;;;;3.17;1.30;;;;;;;;;;5050762;28;20049;-58
2023/04/11 08:11:09;;;;;;;5.45;1.40;;;;;;;;;;5051497;28;20056;-59
2023/04/11 08:13:36;;;;;;;2.13;0.90;;;;;;;;;;5051244;28;20486;-59
2023/04/11 08:16:06;;;;;;;3.28;0.98;;;;;;;;;;5051032;28;20106;-58
2023/04/11 08:18:34;;;;;;;1.80;0.88;;;;;;;;;;5050772;28;20049;-58
2023/04/11 08:21:01;;;;;;;1.70;0.88;;;;;;;;;;5050977;28;20389;-60
2023/04/11 08:23:29;;;;;;;2.67;0.98;;;;;;;;;;5050797;28;20053;-59
2023/04/11 08:25:55;;;;;;;1.33;0.70;;;;;;;;;;5050824;28;20486;-59
2023/04/11 08:28:22;;;;;;;1.55;0.90;;;;;;;;;;5050861;28;20057;-59
2023/04/11 08:30:52;;;;;;;2.53;0.80;;;;;;;;;;5050989;28;20099;-59
2023/04/11 08:33:23;;;;;;;1.98;0.80;;;;;;;;;;5050650;28;20059;-59
2023/04/11 08:35:50;;;;;;;1.70;0.50;;;;;;;;;;5050105;28;20064;-58
2023/04/11 08:38:16;;;;;;;1.77;0.63;;;;;;;;;;5050570;28;20049;-59
2023/04/11 08:40:43;;;;;;;1.35;0.70;;;;;;;;;;5050317;28;20107;-60
2023/04/11 08:43:11;;;;;;;1.88;0.65;;;;;;;;;;5050390;28;20114;-59
2023/04/11 08:45:38;;;;;;;2.35;0.98;;;;;;;;;;5050326;28;20156;-58
2023/04/11 08:48:06;;;;;;;1.30;0.68;;;;;;;;;;5050141;28;20052;-59
2023/04/11 08:50:34;;;;;;;2.33;0.90;;;;;;;;;;5050573;28;20092;-59
2023/04/11 08:53:02;;;;;;;2.35;0.90;;;;;;;;;;5050346;28;20045;-59
2023/04/11 08:55:29;;;;;;;2.55;0.95;;;;;;;;;;5050457;28;20482;-60
2023/04/11 08:57:58;;;;;;;2.63;0.80;;;;;;;;;;5050031;28;20465;-59
2023/04/11 09:00:27;;;;;;;1.98;0.80;;;;;;;;;;5050269;28;20061;-59
2023/04/11 09:02:56;;;;;;;3.33;1.00;;;;;;;;;;5050424;28;20103;-60
2023/04/11 09:05:31;;;;;;;2.30;0.80;;;;;;;;;;5050177;28;20049;-60
2023/04/11 09:07:59;;;;;;;3.72;0.98;;;;;;;;;;5050277;28;20049;-60
2023/04/11 09:10:27;;;;;;;1.92;0.80;;;;;;;;;;5050174;28;20584;-59
2023/04/11 09:12:55;;;;;;;1.63;0.80;;;;;;;;;;5050135;28;20051;-60
2023/04/11 09:15:23;;;;;;;2.40;0.90;;;;;;;;;;5050431;28;20053;-59
2023/04/11 09:17:50;;;;;;;1.60;0.80;;;;;;;;;;5049769;28;20056;-59
2023/04/11 09:20:18;;;;;;;2.83;0.90;;;;;;;;;;5050200;28;20411;-61
2023/04/11 09:22:45;;;;;;;3.47;0.90;;;;;;;;;;5050364;28;20111;-59
2023/04/11 09:25:13;;;;;;;9.35;1.60;;;;;;;;;;5049796;28;20119;-58
2023/04/11 09:27:40;;;;;;;1.70;0.70;;;;;;;;;;5049762;28;20114;-58
2023/04/11 09:30:18;;;;;;;1.75;0.82;;;;;;;;;;5049670;28;20057;-59
2023/04/11 09:32:47;;;;;;;10.30;1.92;;;;;;;;;;5049980;28;20135;-56
2023/04/11 09:35:17;;;;;;;7.15;2.42;;;;;;;;;;5032345;28;20106;-59
2023/04/11 09:37:45;;;;;;;1.55;0.70;;;;;;;;;;5050200;28;20477;-59
2023/04/11 09:40:15;;;;;;;4.10;1.10;;;;;;;;;;5049909;28;20595;-57
2023/04/11 09:42:42;;;;;;;3.90;1.33;;;;;;;;;;5050156;28;20498;-60
2023/04/11 09:45:17;;;;;;;1.92;0.80;;;;;;;;;;5049645;28;20071;-60
2023/04/11 09:47:45;;;;;;;2.95;0.73;;;;;;;;;;5054158;28;20057;-59
2023/04/11 09:50:12;;;;;;;1.75;0.80;;;;;;;;;;5053129;28;20049;-59
2023/04/11 09:52:41;;;;;;;4.13;1.10;;;;;;;;;;5053753;28;20049;-60
2023/04/11 09:55:11;;;;;;;3.42;0.80;;;;;;;;;;5053497;28;20049;-60
2023/04/11 09:57:41;;;;;;;3.90;0.90;;;;;;;;;;5053563;28;20456;-60
2023/04/11 10:00:14;;;;;;;2.97;1.00;;;;;;;;;;5053553;28;20045;-58
2023/04/11 10:02:41;;;;;;;4.22;1.05;;;;;;;;;;5053622;28;20217;-60
2023/04/11 10:05:09;;;;;;;2.13;0.80;;;;;;;;;;5053400;28;20041;-60
2023/04/11 10:07:44;;;;;;;3.95;0.77;;;;;;;;;;5053628;28;20057;-67
2023/04/11 10:10:18;;;;;;;3.03;1.00;;;;;;;;;;5053477;28;20053;-57
2023/04/11 10:12:47;;;;;;;2.55;1.20;;;;;;;;;;5053490;28;20053;-58
2023/04/11 10:15:15;;;;;;;5.03;0.98;;;;;;;;;;5053659;28;20048;-58
2023/04/11 10:17:42;;;;;;;2.45;1.00;;;;;;;;;;5053411;28;20060;-58
2023/04/11 10:20:48;;;;;;;1.77;0.88;;;;;;;;;;5053111;28;20056;-59
2023/04/11 10:23:15;;;;;;;2.70;1.35;;;;;;;;;;5053218;28;20153;-62
2023/04/11 10:25:54;;;;;;;2.88;0.98;;;;;;;;;;5053035;28;20406;-58
2023/04/11 10:28:32;;;;;;;3.72;0.82;;;;;;;;;;5053241;28;20053;-58
2023/04/11 10:31:03;;;;;;;3.63;1.08;;;;;;;;;;5052927;28;20049;-59
2023/04/11 10:33:30;;;;;;;3.40;1.00;;;;;;;;;;5052861;28;20068;-59
2023/04/11 10:36:00;;;;;;;4.03;1.33;;;;;;;;;;5053101;28;20072;-58
2023/04/11 10:38:47;;;;;;;4.73;0.87;;;;;;;;;;5053152;28;20092;-58
2023/04/11 10:41:18;;;;;;;3.05;0.88;;;;;;;;;;5053463;28;20044;-59
2023/04/11 10:43:47;;;;;;;2.97;1.00;;;;;;;;;;5052592;28;20130;-58
2023/04/11 10:46:19;;;;;;;3.00;1.10;;;;;;;;;;5053028;28;20096;-58
2023/04/11 10:49:00;;;;;;;2.33;1.00;;;;;;;;;;5052573;28;20063;-58
2023/04/11 10:51:27;;;;;;;;;;;;;;;;;;5055414;28;20517;-57
2023/04/11 10:53:54;;;;;;;4.40;1.30;;;;;;;;;;5053227;28;19920;-55
2023/04/11 10:56:56;;;;;;;3.05;1.27;;;;;;;;;;5052660;28;20088;-56
2023/04/11 10:59:59;;;;;;;2.88;1.35;;;;;;;;;;5052432;28;20106;-55
2023/04/11 11:02:40;;;;;;;3.22;1.08;;;;;;;;;;5051964;28;20140;-56
2023/04/11 11:05:18;;;;;;;5.60;1.10;;;;;;;;;;5073322;22;20110;-77
2023/04/11 11:07:49;;;;;;;3.55;1.13;;;;;;;;;;5071785;28;20044;-76
2023/04/11 11:10:34;;;;;;;2.47;1.08;;;;;;;;;;5072626;28;20045;-77
2023/04/11 11:13:00;;;;;;;4.07;1.25;;;;;;;;;;5072981;28;20132;-76
2023/04/11 11:15:29;;;;;;;2.22;0.90;;;;;;;;;;5072774;28;20542;-77
2023/04/11 11:17:56;;;;;;;4.07;0.90;;;;;;;;;;5072854;28;20056;-77
2023/04/11 11:20:22;;;;;;;4.35;1.15;;;;;;;;;;5072882;28;20123;-76
2023/04/11 11:22:59;;;;;;;3.58;1.20;;;;;;;;;;5075269;28;20106;-76
2023/04/11 11:25:26;;;;;;;2.47;0.90;;;;;;;;;;5079672;28;20127;-76
2023/04/11 11:28:00;;;;;;;3.97;1.13;;;;;;;;;;5080071;28;20177;-76
2023/04/11 11:30:29;;;;;;;4.60;0.98;;;;;;;;;;5079721;28;20124;-76
2023/04/11 11:32:56;;;;;;;4.60;1.15;;;;;;;;;;5080953;28;20041;-76
2023/04/11 11:35:23;;;;;;;4.10;1.00;;;;;;;;;;5081976;28;20049;-76
2023/04/11 11:37:51;;;;;;;3.88;1.13;;;;;;;;;;5079193;28;20083;-76
2023/04/11 11:40:20;;;;;;;3.15;1.08;;;;;;;;;;5078043;28;20044;-76
2023/04/11 11:42:49;;;;;;;3.70;1.50;;;;;;;;;;5078857;28;20168;-76
2023/04/11 11:45:16;;;;;;;2.53;1.00;;;;;;;;;;5079437;28;20052;-76
2023/04/11 11:47:46;;;;;;;3.80;1.05;;;;;;;;;;5079060;28;20048;-76
2023/04/11 11:50:24;;;;;;;3.28;1.05;;;;;;;;;;5077231;28;20521;-76
2023/04/11 11:52:51;;;;;;;5.10;1.40;;;;;;;;;;5076904;28;20040;-76
2023/04/11 11:55:35;;;;;;;3.70;1.33;;;;;;;;;;5074915;28;20041;-76
2023/04/11 11:58:02;;;;;;;4.35;1.13;;;;;;;;;;5073953;28;20110;-76
2023/04/11 12:00:31;;;;;;;3.00;1.00;;;;;;;;;;5073560;28;20060;-76
2023/04/11 12:02:59;;;;;;;4.85;1.60;;;;;;;;;;5072669;28;20045;-76
2023/04/11 12:05:28;;;;;;;3.45;1.38;;;;;;;;;;5071612;28;20045;-76
2023/04/11 12:07:57;;;;;;;5.28;1.38;;;;;;;;;;5071302;28;20151;-76
2023/04/11 12:10:24;;;;;;;2.95;1.13;;;;;;;;;;5070413;28;20044;-76
2023/04/11 12:12:50;;;;;;;6.18;2.15;;;;;;;;;;5071610;28;20049;-77
2023/04/11 12:15:19;;;;;;;4.72;2.00;;;;;;;;;;5076738;28;20045;-77
2023/04/11 12:17:48;;;;;;;6.35;1.40;;;;;;;;;;5081820;28;20116;-77
2023/04/11 12:20:16;;;;;;;5.40;1.52;;;;;;;;;;5074907;28;20044;-77
2023/04/11 12:22:43;;;;;;;4.05;1.15;;;;;;;;;;5076143;28;20044;-77
2023/04/11 12:25:12;;;;;;;4.10;1.20;;;;;;;;;;5073204;28;20097;-77
2023/04/11 12:27:39;;;;;;;3.85;1.50;;;;;;;;;;5072026;28;20272;-78
2023/04/11 12:30:07;;;;;;;3.90;1.48;;;;;;;;;;5071619;28;20041;-77
2023/04/11 12:32:35;;;;;;;4.70;1.20;;;;;;;;;;5071231;28;20128;-77
2023/04/11 12:35:01;;;;;;;6.32;1.40;;;;;;;;;;5073358;28;20459;-77
2023/04/11 12:37:30;;;;;;;3.95;1.60;;;;;;;;;;5079355;28;20078;-77
2023/04/11 12:39:56;;;;;;;2.97;1.40;;;;;;;;;;5074768;28;20041;-77
2023/04/11 12:42:23;;;;;;;8.18;1.73;;;;;;;;;;5072935;28;20127;-78
2023/04/11 12:44:50;;;;;;;5.03;1.48;;;;;;;;;;5072352;28;20044;-78
2023/04/11 12:47:17;;;;;;;4.00;1.42;;;;;;;;;;5072007;28;20090;-79
2023/04/11 12:49:44;;;;;;;5.50;1.65;;;;;;;;;;5073610;28;20579;-77
2023/04/11 12:52:10;;;;;;;5.38;2.17;;;;;;;;;;5071104;28;20127;-80
2023/04/11 12:54:38;;;;;;;5.65;1.85;;;;;;;;;;5073393;28;20076;-78
2023/04/11 12:57:06;;;;;;;5.07;1.50;;;;;;;;;;5071482;28;20044;-78
2023/04/11 12:59:33;;;;;;;3.42;1.58;;;;;;;;;;5071585;28;20044;-78
2023/04/11 13:01:59;;;;;;;6.00;1.60;;;;;;;;;;5071347;28;20131;-77
2023/04/11 13:04:26;;;;;;;6.45;1.40;;;;;;;;;;5071611;28;20054;-77
2023/04/11 13:06:52;;;;;;;4.07;1.48;;;;;;;;;;5070855;28;20127;-77
2023/04/11 13:09:19;;;;;;;3.83;1.65;;;;;;;;;;5070437;28;20057;-76
2023/04/11 13:11:47;;;;;;;5.18;1.73;;;;;;;;;;5071551;28;20055;-76
2023/04/11 13:14:14;;;;;;;4.55;1.52;;;;;;;;;;5070669;28;20068;-76
2023/04/11 13:16:42;;;;;;;5.03;1.60;;;;;;;;;;5070258;28;20060;-77
2023/04/11 13:19:08;;;;;;;5.72;1.88;;;;;;;;;;5070240;28;20048;-76
2023/04/11 13:21:36;;;;;;;4.45;1.45;;;;;;;;;;5069977;28;20040;-77
2023/04/11 13:24:02;;;;;;;6.20;1.75;;;;;;;;;;5070241;28;20132;-76
2023/04/11 13:26:29;;;;;;;4.00;1.70;;;;;;;;;;5069906;28;20147;-76
2023/04/11 13:28:57;;;;;;;5.88;1.73;;;;;;;;;;5070463;28;20052;-76
2023/04/11 13:31:25;;;;;;;3.20;1.50;;;;;;;;;;5070085;28;20519;-77
2023/04/11 13:33:52;;;;;;;6.70;2.20;;;;;;;;;;5070507;28;20049;-77
2023/04/11 13:36:18;;;;;;;5.78;1.70;;;;;;;;;;5069954;28;20131;-76
2023/04/11 13:38:46;;;;;;;2.92;1.30;;;;;;;;;;5071353;28;20048;-76
2023/04/11 13:41:13;;;;;;;4.90;2.08;;;;;;;;;;5070304;28;20106;-76
2023/04/11 13:43:40;;;;;;;6.45;1.50;;;;;;;;;;5070825;28;20075;-76
2023/04/11 13:46:08;;;;;;;4.30;1.85;;;;;;;;;;5070091;28;20131;-77
2023/04/11 13:48:35;;;;;;;4.28;1.50;;;;;;;;;;5069318;28;20071;-76
2023/04/11 13:51:03;;;;;;;6.07;1.85;;;;;;;;;;5069555;28;20067;-77
2023/04/11 13:53:29;;;;;;;4.88;1.75;;;;;;;;;;5071030;28;20102;-76
2023/04/11 13:55:56;;;;;;;4.60;1.70;;;;;;;;;;5070693;28;20051;-76
2023/04/11 13:58:23;;;;;;;4.20;1.73;;;;;;;;;;5070910;28;20070;-77
2023/04/11 14:00:49;;;;;;;5.10;1.60;;;;;;;;;;5070020;28;20040;-76
2023/04/11 14:03:17;;;;;;;3.75;1.33;;;;;;;;;;5069993;28;20072;-76
2023/04/11 14:05:44;;;;;;;4.22;1.20;;;;;;;;;;5069654;28;20048;-76
2023/04/11 14:08:10;;;;;;;5.45;2.00;;;;;;;;;;5069661;28;20059;-77
2023/04/11 14:10:37;;;;;;;3.38;1.33;;;;;;;;;;5069994;28;20139;-77
2023/04/11 14:13:04;;;;;;;7.97;1.73;;;;;;;;;;5070375;28;20143;-77
2023/04/11 14:15:31;;;;;;;4.30;1.50;;;;;;;;;;5069936;28;20052;-77
2023/04/11 14:17:57;;;;;;;3.47;1.23;;;;;;;;;;5069566;28;20052;-77
2023/04/11 14:20:26;;;;;;;4.63;1.38;;;;;;;;;;5069590;28;20320;-77
2023/04/11 14:22:52;;;;;;;6.13;1.45;;;;;;;;;;5069962;28;20406;-77
2023/04/11 14:25:19;;;;;;;3.10;1.30;;;;;;;;;;5069649;28;20132;-77
2023/04/11 14:27:46;;;;;;;4.82;1.73;;;;;;;;;;5069628;28;20098;-77
2023/04/11 14:30:13;;;;;;;4.75;1.60;;;;;;;;;;5070062;28;20131;-78
2023/04/11 14:32:40;;;;;;;4.35;1.75;;;;;;;;;;5069771;28;20571;-78
2023/04/11 14:35:08;;;;;;;3.85;1.40;;;;;;;;;;5073552;28;20045;-77
2023/04/11 14:37:36;;;;;;;4.10;1.27;;;;;;;;;;5073145;28;20075;-77
2023/04/11 14:40:03;;;;;;;4.95;1.30;;;;;;;;;;5073386;28;20102;-78
2023/04/11 14:42:30;;;;;;;3.70;1.40;;;;;;;;;;5073349;28;20049;-77
2023/04/11 14:44:57;;;;;;;5.60;1.67;;;;;;;;;;5073448;28;20483;-78
2023/04/11 14:47:24;;;;;;;6.68;2.20;;;;;;;;;;5073536;28;20071;-77
2023/04/11 14:49:50;;;;;;;2.28;1.20;;;;;;;;;;5074069;28;20049;-78